sensor_id;sensor_type;location;lat;lon;timestamp;temperature;humidity
3488;DHT22;38546;48.170;11.724;2022-12-26T00:00:11;7.00;99.90
3488;DHT22;38546;48.170;11.724;2022-12-26T00:03:01;7.10;99.90
3488;DHT22;38546;48.170;11.724;2022-12-26T00:05:50;7.20;99.90
3488;DHT22;38546;48.170;11.724;2022-12-26T00:08:40;7.30;99.90
3488;DHT22;38546;48.170;11.724;2022-12-26T00:11:30;7.30;99.90
3488;DHT22;38546;48.170;11.724;2022-12-26T00:14:20;7.30;99.90
3488;DHT22;38546;48.170;11.724;2022-12-26T00:17:09;7.40;99.90
3488;DHT22;38546;48.170;11.724;2022-12-26T00:19:58;7.40;99.90
3488;DHT22;38546;48.170;11.724;2022-12-26T00:22:47;7.40;99.90
3488;DHT22;38546;48.170;11.724;2022-12-26T00:25:36;7.40;99.90
3488;DHT22;38546;48.170;11.724;2022-12-26T00:28:26;7.50;99.90
3488;DHT22;38546;48.170;11.724;2022-12-26T00:31:27;7.50;99.90
3488;DHT22;38546;48.170;11.724;2022-12-26T00:34:17;7.50;99.90
3488;DHT22;38546;48.170;11.724;2022-12-26T00:37:07;7.50;99.90
3488;DHT22;38546;48.170;11.724;2022-12-26T00:39:57;7.50;99.90
3488;DHT22;38546;48.170;11.724;2022-12-26T00:42:46;7.60;99.90
3488;DHT22;38546;48.170;11.724;2022-12-26T00:45:35;7.60;99.90
3488;DHT22;38546;48.170;11.724;2022-12-26T00:48:25;7.60;99.90
3488;DHT22;38546;48.170;11.724;2022-12-26T00:51:15;7.70;99.90
3488;DHT22;38546;48.170;11.724;2022-12-26T00:54:04;7.70;99.90
3488;DHT22;38546;48.170;11.724;2022-12-26T00:56:54;7.60;99.90
3488;DHT22;38546;48.170;11.724;2022-12-26T00:59:43;7.60;99.90
3488;DHT22;38546;48.170;11.724;2022-12-26T01:02:32;7.60;99.90
3488;DHT22;38546;48.170;11.724;2022-12-26T01:05:28;7.60;99.90
3488;DHT22;38546;48.170;11.724;2022-12-26T01:08:18;7.60;99.90
3488;DHT22;38546;48.170;11.724;2022-12-26T01:11:09;7.60;99.90
3488;DHT22;38546;48.170;11.724;2022-12-26T01:14:03;7.50;99.90
3488;DHT22;38546;48.170;11.724;2022-12-26T01:16:52;7.50;99.90
3488;DHT22;38546;48.170;11.724;2022-12-26T01:19:41;7.50;99.90
3488;DHT22;38546;48.170;11.724;2022-12-26T01:22:31;7.40;99.90
3488;DHT22;38546;48.170;11.724;2022-12-26T01:25:20;7.40;99.90
3488;DHT22;38546;48.170;11.724;2022-12-26T01:28:10;7.40;99.90
3488;DHT22;38546;48.170;11.724;2022-12-26T01:31:01;7.30;99.90
3488;DHT22;38546;48.170;11.724;2022-12-26T01:33:50;7.30;99.90
3488;DHT22;38546;48.170;11.724;2022-12-26T01:36:40;7.20;99.90
3488;DHT22;38546;48.170;11.724;2022-12-26T01:39:30;7.20;99.90
3488;DHT22;38546;48.170;11.724;2022-12-26T01:42:23;7.10;99.90
3488;DHT22;38546;48.170;11.724;2022-12-26T01:45:22;7.10;99.90
3488;DHT22;38546;48.170;11.724;2022-12-26T01:48:24;7.10;99.90
3488;DHT22;38546;48.170;11.724;2022-12-26T01:51:24;7.10;99.90
3488;DHT22;38546;48.170;11.724;2022-12-26T01:54:17;7.00;99.90
3488;DHT22;38546;48.170;11.724;2022-12-26T01:57:12;7.00;99.90
3488;DHT22;38546;48.170;11.724;2022-12-26T02:00:10;6.90;99.90
3488;DHT22;38546;48.170;11.724;2022-12-26T02:03:00;6.90;99.90
3488;DHT22;38546;48.170;11.724;2022-12-26T02:06:09;6.90;99.90
3488;DHT22;38546;48.170;11.724;2022-12-26T02:08:59;6.80;99.90
3488;DHT22;38546;48.170;11.724;2022-12-26T02:11:55;6.80;99.90
3488;DHT22;38546;48.170;11.724;2022-12-26T02:14:48;6.80;99.90
3488;DHT22;38546;48.170;11.724;2022-12-26T02:17:39;6.70;99.90
3488;DHT22;38546;48.170;11.724;2022-12-26T02:20:38;6.80;99.90
3488;DHT22;38546;48.170;11.724;2022-12-26T02:23:58;6.70;99.90
3488;DHT22;38546;48.170;11.724;2022-12-26T02:27:51;6.70;99.90
3488;DHT22;38546;48.170;11.724;2022-12-26T02:34:15;6.70;99.90
3488;DHT22;38546;48.170;11.724;2022-12-26T02:37:41;6.60;99.90
3488;DHT22;38546;48.170;11.724;2022-12-26T02:40:52;6.60;99.90
3488;DHT22;38546;48.170;11.724;2022-12-26T02:44:53;6.60;99.90
3488;DHT22;38546;48.170;11.724;2022-12-26T02:49:15;6.50;99.90
3488;DHT22;38546;48.170;11.724;2022-12-26T02:52:19;6.50;99.90
3488;DHT22;38546;48.170;11.724;2022-12-26T02:55:37;6.50;99.90
3488;DHT22;38546;48.170;11.724;2022-12-26T02:59:12;6.50;99.90
3488;DHT22;38546;48.170;11.724;2022-12-26T03:02:37;6.50;99.90
3488;DHT22;38546;48.170;11.724;2022-12-26T03:06:19;6.50;99.90
3488;DHT22;38546;48.170;11.724;2022-12-26T03:09:31;6.50;99.90
3488;DHT22;38546;48.170;11.724;2022-12-26T03:12:53;6.50;99.90
3488;DHT22;38546;48.170;11.724;2022-12-26T03:16:02;6.50;99.90
3488;DHT22;38546;48.170;11.724;2022-12-26T03:19:13;6.50;99.90
3488;DHT22;38546;48.170;11.724;2022-12-26T03:22:04;6.50;99.90
3488;DHT22;38546;48.170;11.724;2022-12-26T03:25:55;6.50;99.90
3488;DHT22;38546;48.170;11.724;2022-12-26T03:29:12;6.50;99.90
3488;DHT22;38546;48.170;11.724;2022-12-26T03:32:22;6.50;99.90
3488;DHT22;38546;48.170;11.724;2022-12-26T03:35:13;6.50;99.90
3488;DHT22;38546;48.170;11.724;2022-12-26T03:38:10;6.50;99.90
3488;DHT22;38546;48.170;11.724;2022-12-26T03:41:10;6.50;99.90
3488;DHT22;38546;48.170;11.724;2022-12-26T03:44:36;6.50;99.90
3488;DHT22;38546;48.170;11.724;2022-12-26T03:51:21;6.50;99.90
3488;DHT22;38546;48.170;11.724;2022-12-26T04:01:45;6.40;99.90
3488;DHT22;38546;48.170;11.724;2022-12-26T04:04:54;6.40;99.90
3488;DHT22;38546;48.170;11.724;2022-12-26T04:08:10;6.40;99.90
3488;DHT22;38546;48.170;11.724;2022-12-26T04:11:23;6.40;99.90
3488;DHT22;38546;48.170;11.724;2022-12-26T04:14:40;6.40;99.90
3488;DHT22;38546;48.170;11.724;2022-12-26T04:18:01;6.40;99.90
3488;DHT22;38546;48.170;11.724;2022-12-26T04:24:54;6.40;99.90
3488;DHT22;38546;48.170;11.724;2022-12-26T04:28:10;6.30;99.90
3488;DHT22;38546;48.170;11.724;2022-12-26T04:31:30;6.30;99.90
3488;DHT22;38546;48.170;11.724;2022-12-26T04:34:47;6.30;99.90
3488;DHT22;38546;48.170;11.724;2022-12-26T04:39:33;6.20;99.90
3488;DHT22;38546;48.170;11.724;2022-12-26T04:42:42;6.20;99.90
3488;DHT22;38546;48.170;11.724;2022-12-26T04:45:51;6.10;99.90
3488;DHT22;38546;48.170;11.724;2022-12-26T04:48:45;6.10;99.90
3488;DHT22;38546;48.170;11.724;2022-12-26T04:51:56;6.10;99.90
3488;DHT22;38546;48.170;11.724;2022-12-26T04:54:46;6.10;99.90
3488;DHT22;38546;48.170;11.724;2022-12-26T04:57:35;6.00;99.90
3488;DHT22;38546;48.170;11.724;2022-12-26T05:00:27;6.00;99.90
3488;DHT22;38546;48.170;11.724;2022-12-26T05:03:16;6.00;99.90
3488;DHT22;38546;48.170;11.724;2022-12-26T05:06:24;6.00;99.90
3488;DHT22;38546;48.170;11.724;2022-12-26T05:09:33;6.00;99.90
3488;DHT22;38546;48.170;11.724;2022-12-26T05:12:22;6.00;99.90
3488;DHT22;38546;48.170;11.724;2022-12-26T05:15:12;6.00;99.90
3488;DHT22;38546;48.170;11.724;2022-12-26T05:18:02;6.10;99.90
3488;DHT22;38546;48.170;11.724;2022-12-26T05:21:13;6.10;99.90
3488;DHT22;38546;48.170;11.724;2022-12-26T05:24:30;6.10;99.90
3488;DHT22;38546;48.170;11.724;2022-12-26T05:27:42;6.10;99.90
3488;DHT22;38546;48.170;11.724;2022-12-26T05:30:51;6.10;99.90
3488;DHT22;38546;48.170;11.724;2022-12-26T05:33:41;6.10;99.90
3488;DHT22;38546;48.170;11.724;2022-12-26T05:36:53;6.10;99.90
3488;DHT22;38546;48.170;11.724;2022-12-26T05:39:44;6.00;99.90
3488;DHT22;38546;48.170;11.724;2022-12-26T05:42:33;6.00;99.90
3488;DHT22;38546;48.170;11.724;2022-12-26T05:45:22;6.00;99.90
3488;DHT22;38546;48.170;11.724;2022-12-26T05:48:11;6.00;99.90
3488;DHT22;38546;48.170;11.724;2022-12-26T05:51:02;6.00;99.90
3488;DHT22;38546;48.170;11.724;2022-12-26T05:53:52;6.00;99.90
3488;DHT22;38546;48.170;11.724;2022-12-26T05:56:41;6.10;99.90
3488;DHT22;38546;48.170;11.724;2022-12-26T05:59:30;6.10;99.90
3488;DHT22;38546;48.170;11.724;2022-12-26T06:02:20;6.10;99.90
3488;DHT22;38546;48.170;11.724;2022-12-26T06:05:10;6.20;99.90
3488;DHT22;38546;48.170;11.724;2022-12-26T06:07:58;6.20;99.90
3488;DHT22;38546;48.170;11.724;2022-12-26T06:10:47;6.30;99.90
3488;DHT22;38546;48.170;11.724;2022-12-26T06:13:37;6.30;99.90
3488;DHT22;38546;48.170;11.724;2022-12-26T06:16:26;6.30;99.90
3488;DHT22;38546;48.170;11.724;2022-12-26T06:19:15;6.40;99.90
3488;DHT22;38546;48.170;11.724;2022-12-26T06:22:05;6.40;99.90
3488;DHT22;38546;48.170;11.724;2022-12-26T06:24:54;6.40;99.90
3488;DHT22;38546;48.170;11.724;2022-12-26T06:27:43;6.50;99.90
3488;DHT22;38546;48.170;11.724;2022-12-26T06:30:33;6.50;99.90
3488;DHT22;38546;48.170;11.724;2022-12-26T06:33:22;6.60;99.90
3488;DHT22;38546;48.170;11.724;2022-12-26T06:36:14;6.70;99.90
3488;DHT22;38546;48.170;11.724;2022-12-26T06:39:05;6.80;99.90
3488;DHT22;38546;48.170;11.724;2022-12-26T06:41:54;6.90;99.90
3488;DHT22;38546;48.170;11.724;2022-12-26T06:44:44;7.00;99.90
3488;DHT22;38546;48.170;11.724;2022-12-26T06:47:33;7.00;99.90
3488;DHT22;38546;48.170;11.724;2022-12-26T06:50:22;7.10;99.90
3488;DHT22;38546;48.170;11.724;2022-12-26T06:53:11;7.10;99.90
3488;DHT22;38546;48.170;11.724;2022-12-26T06:56:11;7.20;99.90
3488;DHT22;38546;48.170;11.724;2022-12-26T06:59:05;7.30;99.90
3488;DHT22;38546;48.170;11.724;2022-12-26T07:01:54;7.40;99.90
3488;DHT22;38546;48.170;11.724;2022-12-26T07:04:43;7.50;99.90
3488;DHT22;38546;48.170;11.724;2022-12-26T07:07:33;7.50;99.90
3488;DHT22;38546;48.170;11.724;2022-12-26T07:10:22;7.60;99.90
3488;DHT22;38546;48.170;11.724;2022-12-26T07:13:12;7.60;99.90
3488;DHT22;38546;48.170;11.724;2022-12-26T07:16:00;7.70;99.90
3488;DHT22;38546;48.170;11.724;2022-12-26T07:18:56;7.80;99.90
3488;DHT22;38546;48.170;11.724;2022-12-26T07:21:45;7.90;99.90
3488;DHT22;38546;48.170;11.724;2022-12-26T07:24:34;8.00;99.90
3488;DHT22;38546;48.170;11.724;2022-12-26T07:27:23;8.00;99.90
3488;DHT22;38546;48.170;11.724;2022-12-26T07:30:13;8.00;99.90
3488;DHT22;38546;48.170;11.724;2022-12-26T07:33:02;8.00;99.90
3488;DHT22;38546;48.170;11.724;2022-12-26T07:35:51;8.10;99.90
3488;DHT22;38546;48.170;11.724;2022-12-26T07:38:41;8.10;99.90
3488;DHT22;38546;48.170;11.724;2022-12-26T07:41:30;8.20;99.90
3488;DHT22;38546;48.170;11.724;2022-12-26T07:44:38;8.40;99.90
3488;DHT22;38546;48.170;11.724;2022-12-26T07:47:28;8.40;99.90
3488;DHT22;38546;48.170;11.724;2022-12-26T07:50:17;8.50;99.90
3488;DHT22;38546;48.170;11.724;2022-12-26T07:53:08;8.50;99.90
3488;DHT22;38546;48.170;11.724;2022-12-26T07:56:00;8.60;99.90
3488;DHT22;38546;48.170;11.724;2022-12-26T07:58:50;8.70;99.90
3488;DHT22;38546;48.170;11.724;2022-12-26T08:01:41;8.70;99.90
3488;DHT22;38546;48.170;11.724;2022-12-26T08:04:31;8.80;99.90
3488;DHT22;38546;48.170;11.724;2022-12-26T08:07:21;9.00;99.90
3488;DHT22;38546;48.170;11.724;2022-12-26T08:10:10;9.00;99.90
3488;DHT22;38546;48.170;11.724;2022-12-26T08:13:00;9.20;99.90
3488;DHT22;38546;48.170;11.724;2022-12-26T08:15:49;9.30;99.90
3488;DHT22;38546;48.170;11.724;2022-12-26T08:18:39;9.30;99.90
3488;DHT22;38546;48.170;11.724;2022-12-26T08:21:29;9.20;99.90
3488;DHT22;38546;48.170;11.724;2022-12-26T08:24:18;9.30;99.90
3488;DHT22;38546;48.170;11.724;2022-12-26T08:27:09;9.20;99.90
3488;DHT22;38546;48.170;11.724;2022-12-26T08:29:58;9.20;99.90
3488;DHT22;38546;48.170;11.724;2022-12-26T08:32:50;9.10;99.90
3488;DHT22;38546;48.170;11.724;2022-12-26T08:35:40;9.10;99.90
3488;DHT22;38546;48.170;11.724;2022-12-26T08:38:29;9.00;99.90
3488;DHT22;38546;48.170;11.724;2022-12-26T08:41:20;9.10;99.90
3488;DHT22;38546;48.170;11.724;2022-12-26T08:44:09;9.10;99.90
3488;DHT22;38546;48.170;11.724;2022-12-26T08:47:01;9.20;99.90
3488;DHT22;38546;48.170;11.724;2022-12-26T08:49:50;9.30;99.90
3488;DHT22;38546;48.170;11.724;2022-12-26T08:52:40;9.40;99.90
3488;DHT22;38546;48.170;11.724;2022-12-26T08:55:29;9.50;99.90
3488;DHT22;38546;48.170;11.724;2022-12-26T08:58:19;9.60;99.90
3488;DHT22;38546;48.170;11.724;2022-12-26T09:01:15;9.70;99.90
3488;DHT22;38546;48.170;11.724;2022-12-26T09:04:05;9.90;99.90
3488;DHT22;38546;48.170;11.724;2022-12-26T09:06:54;10.20;99.90
3488;DHT22;38546;48.170;11.724;2022-12-26T09:09:44;10.40;99.90
3488;DHT22;38546;48.170;11.724;2022-12-26T09:12:33;10.50;99.90
3488;DHT22;38546;48.170;11.724;2022-12-26T09:15:22;10.70;99.90
3488;DHT22;38546;48.170;11.724;2022-12-26T09:18:11;10.80;99.90
3488;DHT22;38546;48.170;11.724;2022-12-26T09:21:02;11.00;99.90
3488;DHT22;38546;48.170;11.724;2022-12-26T09:23:58;11.10;99.90
3488;DHT22;38546;48.170;11.724;2022-12-26T09:26:48;11.30;99.90
3488;DHT22;38546;48.170;11.724;2022-12-26T09:29:37;11.40;99.90
3488;DHT22;38546;48.170;11.724;2022-12-26T09:32:26;11.50;99.90
3488;DHT22;38546;48.170;11.724;2022-12-26T09:35:20;11.60;99.90
3488;DHT22;38546;48.170;11.724;2022-12-26T09:38:10;11.80;99.90
3488;DHT22;38546;48.170;11.724;2022-12-26T09:46:00;12.10;99.90
3488;DHT22;38546;48.170;11.724;2022-12-26T09:49:16;12.20;99.90
3488;DHT22;38546;48.170;11.724;2022-12-26T09:52:16;12.20;99.90
3488;DHT22;38546;48.170;11.724;2022-12-26T09:56:15;12.20;99.90
3488;DHT22;38546;48.170;11.724;2022-12-26T09:59:15;12.20;99.90
3488;DHT22;38546;48.170;11.724;2022-12-26T10:02:19;12.20;99.90
3488;DHT22;38546;48.170;11.724;2022-12-26T10:05:12;12.40;99.90
3488;DHT22;38546;48.170;11.724;2022-12-26T10:08:31;12.50;99.90
3488;DHT22;38546;48.170;11.724;2022-12-26T10:15:44;12.60;99.90
3488;DHT22;38546;48.170;11.724;2022-12-26T10:20:21;12.60;99.90
3488;DHT22;38546;48.170;11.724;2022-12-26T10:24:36;12.70;99.90
3488;DHT22;38546;48.170;11.724;2022-12-26T10:27:30;12.70;99.90
3488;DHT22;38546;48.170;11.724;2022-12-26T10:30:33;12.70;99.90
3488;DHT22;38546;48.170;11.724;2022-12-26T10:38:40;12.80;99.90
3488;DHT22;38546;48.170;11.724;2022-12-26T10:41:46;12.80;99.90
3488;DHT22;38546;48.170;11.724;2022-12-26T10:44:39;13.00;99.90
3488;DHT22;38546;48.170;11.724;2022-12-26T10:47:37;13.00;99.90
3488;DHT22;38546;48.170;11.724;2022-12-26T10:50:31;12.90;99.90
3488;DHT22;38546;48.170;11.724;2022-12-26T10:53:22;12.90;99.90
3488;DHT22;38546;48.170;11.724;2022-12-26T10:56:13;12.80;99.90
3488;DHT22;38546;48.170;11.724;2022-12-26T10:59:04;13.00;99.90
3488;DHT22;38546;48.170;11.724;2022-12-26T11:01:54;13.00;99.90
3488;DHT22;38546;48.170;11.724;2022-12-26T11:05:26;13.00;99.90
3488;DHT22;38546;48.170;11.724;2022-12-26T11:14:45;13.00;99.90
3488;DHT22;38546;48.170;11.724;2022-12-26T11:17:41;13.20;99.90
3488;DHT22;38546;48.170;11.724;2022-12-26T11:20:32;13.20;99.90
3488;DHT22;38546;48.170;11.724;2022-12-26T11:23:29;13.40;99.90
3488;DHT22;38546;48.170;11.724;2022-12-26T11:26:27;13.50;99.90
3488;DHT22;38546;48.170;11.724;2022-12-26T11:29:21;13.50;99.90
3488;DHT22;38546;48.170;11.724;2022-12-26T11:32:18;13.70;99.90
3488;DHT22;38546;48.170;11.724;2022-12-26T11:35:23;13.90;99.90
3488;DHT22;38546;48.170;11.724;2022-12-26T11:38:18;13.90;99.90
3488;DHT22;38546;48.170;11.724;2022-12-26T11:41:45;13.80;99.90
3488;DHT22;38546;48.170;11.724;2022-12-26T11:44:41;13.70;99.90
3488;DHT22;38546;48.170;11.724;2022-12-26T11:47:33;13.60;99.90
3488;DHT22;38546;48.170;11.724;2022-12-26T11:50:26;13.60;99.90
3488;DHT22;38546;48.170;11.724;2022-12-26T11:53:19;13.50;99.90
3488;DHT22;38546;48.170;11.724;2022-12-26T11:56:10;13.50;99.90
3488;DHT22;38546;48.170;11.724;2022-12-26T11:59:21;13.50;99.90
3488;DHT22;38546;48.170;11.724;2022-12-26T12:02:23;13.60;99.90
3488;DHT22;38546;48.170;11.724;2022-12-26T12:05:28;13.70;99.90
3488;DHT22;38546;48.170;11.724;2022-12-26T12:09:42;13.90;99.90
3488;DHT22;38546;48.170;11.724;2022-12-26T12:12:47;14.40;99.90
3488;DHT22;38546;48.170;11.724;2022-12-26T12:18:46;14.40;99.90
3488;DHT22;38546;48.170;11.724;2022-12-26T12:22:47;14.40;99.90
3488;DHT22;38546;48.170;11.724;2022-12-26T12:26:31;14.30;99.90
3488;DHT22;38546;48.170;11.724;2022-12-26T12:36:54;13.90;99.90
3488;DHT22;38546;48.170;11.724;2022-12-26T12:43:19;12.60;99.90
3488;DHT22;38546;48.170;11.724;2022-12-26T12:46:31;11.60;99.90
3488;DHT22;38546;48.170;11.724;2022-12-26T12:50:03;11.40;99.90
3488;DHT22;38546;48.170;11.724;2022-12-26T12:56:05;11.10;99.90
3488;DHT22;38546;48.170;11.724;2022-12-26T13:00:44;10.80;99.90
3488;DHT22;38546;48.170;11.724;2022-12-26T13:03:52;11.00;99.90
3488;DHT22;38546;48.170;11.724;2022-12-26T13:07:29;11.00;99.90
3488;DHT22;38546;48.170;11.724;2022-12-26T13:10:30;11.00;99.90
3488;DHT22;38546;48.170;11.724;2022-12-26T13:13:33;10.90;99.90
3488;DHT22;38546;48.170;11.724;2022-12-26T13:16:28;10.80;99.90
3488;DHT22;38546;48.170;11.724;2022-12-26T13:19:26;10.70;99.90
3488;DHT22;38546;48.170;11.724;2022-12-26T13:22:26;10.70;99.90
3488;DHT22;38546;48.170;11.724;2022-12-26T13:27:24;10.60;99.90
3488;DHT22;38546;48.170;11.724;2022-12-26T13:30:17;10.40;99.90
3488;DHT22;38546;48.170;11.724;2022-12-26T13:33:12;10.50;99.90
3488;DHT22;38546;48.170;11.724;2022-12-26T13:36:04;10.40;99.90
3488;DHT22;38546;48.170;11.724;2022-12-26T13:40:17;10.40;99.90
3488;DHT22;38546;48.170;11.724;2022-12-26T13:43:22;10.50;99.90
3488;DHT22;38546;48.170;11.724;2022-12-26T13:46:54;10.40;99.90
3488;DHT22;38546;48.170;11.724;2022-12-26T13:49:45;10.30;99.90
3488;DHT22;38546;48.170;11.724;2022-12-26T13:52:34;10.10;99.90
3488;DHT22;38546;48.170;11.724;2022-12-26T13:55:31;10.40;99.90
3488;DHT22;38546;48.170;11.724;2022-12-26T13:58:52;10.30;99.90
3488;DHT22;38546;48.170;11.724;2022-12-26T14:01:56;10.20;99.90
3488;DHT22;38546;48.170;11.724;2022-12-26T14:13:28;10.00;99.90
3488;DHT22;38546;48.170;11.724;2022-12-26T14:16:49;10.00;99.90
3488;DHT22;38546;48.170;11.724;2022-12-26T14:20:11;10.10;99.90
3488;DHT22;38546;48.170;11.724;2022-12-26T14:23:39;10.10;99.90
3488;DHT22;38546;48.170;11.724;2022-12-26T14:26:47;10.00;99.90
3488;DHT22;38546;48.170;11.724;2022-12-26T14:40:35;9.90;99.90
3488;DHT22;38546;48.170;11.724;2022-12-26T14:43:37;9.90;99.90
3488;DHT22;38546;48.170;11.724;2022-12-26T14:47:10;9.70;99.90
3488;DHT22;38546;48.170;11.724;2022-12-26T14:50:43;9.70;99.90
3488;DHT22;38546;48.170;11.724;2022-12-26T14:53:35;9.60;99.90
3488;DHT22;38546;48.170;11.724;2022-12-26T14:56:33;9.70;99.90
3488;DHT22;38546;48.170;11.724;2022-12-26T14:59:32;9.70;99.90
3488;DHT22;38546;48.170;11.724;2022-12-26T15:02:32;9.60;99.90
3488;DHT22;38546;48.170;11.724;2022-12-26T15:05:27;9.60;99.90
3488;DHT22;38546;48.170;11.724;2022-12-26T15:08:52;9.60;99.90
3488;DHT22;38546;48.170;11.724;2022-12-26T15:15:10;9.60;99.90
3488;DHT22;38546;48.170;11.724;2022-12-26T15:19:00;9.40;99.90
3488;DHT22;38546;48.170;11.724;2022-12-26T15:33:49;9.30;99.90
3488;DHT22;38546;48.170;11.724;2022-12-26T15:37:03;9.40;99.90
3488;DHT22;38546;48.170;11.724;2022-12-26T15:40:22;9.40;99.90
3488;DHT22;38546;48.170;11.724;2022-12-26T15:50:32;9.30;99.90
3488;DHT22;38546;48.170;11.724;2022-12-26T16:01:43;9.20;99.90
3488;DHT22;38546;48.170;11.724;2022-12-26T16:04:38;9.30;99.90
3488;DHT22;38546;48.170;11.724;2022-12-26T16:07:36;9.40;99.90
3488;DHT22;38546;48.170;11.724;2022-12-26T16:10:32;9.20;99.90
3488;DHT22;38546;48.170;11.724;2022-12-26T16:13:23;9.30;99.90
3488;DHT22;38546;48.170;11.724;2022-12-26T16:16:28;9.30;99.90
3488;DHT22;38546;48.170;11.724;2022-12-26T16:19:27;9.20;99.90
3488;DHT22;38546;48.170;11.724;2022-12-26T16:22:27;9.30;99.90
3488;DHT22;38546;48.170;11.724;2022-12-26T16:25:34;9.20;99.90
3488;DHT22;38546;48.170;11.724;2022-12-26T16:28:30;9.30;99.90
3488;DHT22;38546;48.170;11.724;2022-12-26T16:31:27;9.10;99.90
3488;DHT22;38546;48.170;11.724;2022-12-26T16:34:19;9.20;99.90
3488;DHT22;38546;48.170;11.724;2022-12-26T16:37:19;9.20;99.90
3488;DHT22;38546;48.170;11.724;2022-12-26T16:40:17;9.10;99.90
3488;DHT22;38546;48.170;11.724;2022-12-26T16:43:31;8.90;99.90
3488;DHT22;38546;48.170;11.724;2022-12-26T16:46:27;8.80;99.90
3488;DHT22;38546;48.170;11.724;2022-12-26T16:49:18;8.70;99.90
3488;DHT22;38546;48.170;11.724;2022-12-26T16:52:30;8.90;99.90
3488;DHT22;38546;48.170;11.724;2022-12-26T16:55:49;9.00;99.90
3488;DHT22;38546;48.170;11.724;2022-12-26T16:58:43;8.90;99.90
3488;DHT22;38546;48.170;11.724;2022-12-26T17:01:33;8.90;99.90
3488;DHT22;38546;48.170;11.724;2022-12-26T17:04:26;8.90;99.90
3488;DHT22;38546;48.170;11.724;2022-12-26T17:07:17;8.80;99.90
3488;DHT22;38546;48.170;11.724;2022-12-26T17:10:23;9.00;99.90
3488;DHT22;38546;48.170;11.724;2022-12-26T17:13:21;8.80;99.90
3488;DHT22;38546;48.170;11.724;2022-12-26T17:16:12;8.90;99.90
3488;DHT22;38546;48.170;11.724;2022-12-26T17:19:35;8.80;99.90
3488;DHT22;38546;48.170;11.724;2022-12-26T17:22:33;8.80;99.90
3488;DHT22;38546;48.170;11.724;2022-12-26T17:25:26;8.70;99.90
3488;DHT22;38546;48.170;11.724;2022-12-26T17:28:26;8.70;99.90
3488;DHT22;38546;48.170;11.724;2022-12-26T17:31:23;8.80;99.90
3488;DHT22;38546;48.170;11.724;2022-12-26T17:34:25;8.70;99.90
3488;DHT22;38546;48.170;11.724;2022-12-26T17:37:22;8.60;99.90
3488;DHT22;38546;48.170;11.724;2022-12-26T17:40:22;8.60;99.90
3488;DHT22;38546;48.170;11.724;2022-12-26T17:43:30;8.40;99.90
3488;DHT22;38546;48.170;11.724;2022-12-26T17:46:21;8.40;99.90
3488;DHT22;38546;48.170;11.724;2022-12-26T17:49:10;8.50;99.90
3488;DHT22;38546;48.170;11.724;2022-12-26T17:51:59;8.70;99.90
3488;DHT22;38546;48.170;11.724;2022-12-26T17:54:48;8.70;99.90
3488;DHT22;38546;48.170;11.724;2022-12-26T17:57:38;8.50;99.90
3488;DHT22;38546;48.170;11.724;2022-12-26T18:00:28;8.50;99.90
3488;DHT22;38546;48.170;11.724;2022-12-26T18:03:18;8.40;99.90
3488;DHT22;38546;48.170;11.724;2022-12-26T18:06:12;8.50;99.90
3488;DHT22;38546;48.170;11.724;2022-12-26T18:09:04;8.40;99.90
3488;DHT22;38546;48.170;11.724;2022-12-26T18:11:54;8.40;99.90
3488;DHT22;38546;48.170;11.724;2022-12-26T18:14:43;8.40;99.90
3488;DHT22;38546;48.170;11.724;2022-12-26T18:17:32;8.40;99.90
3488;DHT22;38546;48.170;11.724;2022-12-26T18:20:25;8.40;99.90
3488;DHT22;38546;48.170;11.724;2022-12-26T18:23:16;8.50;99.90
3488;DHT22;38546;48.170;11.724;2022-12-26T18:26:15;8.60;99.90
3488;DHT22;38546;48.170;11.724;2022-12-26T18:29:10;8.50;99.90
3488;DHT22;38546;48.170;11.724;2022-12-26T18:31:59;8.70;99.90
3488;DHT22;38546;48.170;11.724;2022-12-26T18:34:48;8.80;99.90
3488;DHT22;38546;48.170;11.724;2022-12-26T18:37:40;8.60;99.90
3488;DHT22;38546;48.170;11.724;2022-12-26T18:40:40;8.50;99.90
3488;DHT22;38546;48.170;11.724;2022-12-26T18:43:31;8.60;99.90
3488;DHT22;38546;48.170;11.724;2022-12-26T18:46:22;8.60;99.90
3488;DHT22;38546;48.170;11.724;2022-12-26T18:49:13;8.60;99.90
3488;DHT22;38546;48.170;11.724;2022-12-26T18:52:04;8.50;99.90
3488;DHT22;38546;48.170;11.724;2022-12-26T18:54:53;8.90;99.90
3488;DHT22;38546;48.170;11.724;2022-12-26T18:57:42;8.90;99.90
3488;DHT22;38546;48.170;11.724;2022-12-26T19:00:32;8.70;99.90
3488;DHT22;38546;48.170;11.724;2022-12-26T19:03:21;8.90;99.90
3488;DHT22;38546;48.170;11.724;2022-12-26T19:06:15;9.10;99.90
3488;DHT22;38546;48.170;11.724;2022-12-26T19:09:10;8.90;99.90
3488;DHT22;38546;48.170;11.724;2022-12-26T19:12:00;9.00;99.90
3488;DHT22;38546;48.170;11.724;2022-12-26T19:14:49;8.90;99.90
3488;DHT22;38546;48.170;11.724;2022-12-26T19:17:39;9.00;99.90
3488;DHT22;38546;48.170;11.724;2022-12-26T19:20:29;9.10;99.90
3488;DHT22;38546;48.170;11.724;2022-12-26T19:23:19;9.00;99.90
3488;DHT22;38546;48.170;11.724;2022-12-26T19:26:13;9.10;99.90
3488;DHT22;38546;48.170;11.724;2022-12-26T19:29:02;9.20;99.90
3488;DHT22;38546;48.170;11.724;2022-12-26T19:31:52;9.10;99.90
3488;DHT22;38546;48.170;11.724;2022-12-26T19:34:43;9.10;99.90
3488;DHT22;38546;48.170;11.724;2022-12-26T19:37:32;9.20;99.90
3488;DHT22;38546;48.170;11.724;2022-12-26T19:40:22;9.10;99.90
3488;DHT22;38546;48.170;11.724;2022-12-26T19:43:11;9.30;99.90
3488;DHT22;38546;48.170;11.724;2022-12-26T19:46:02;9.20;99.90
3488;DHT22;38546;48.170;11.724;2022-12-26T19:48:52;9.30;99.90
3488;DHT22;38546;48.170;11.724;2022-12-26T19:51:42;9.20;99.90
3488;DHT22;38546;48.170;11.724;2022-12-26T19:54:31;9.10;99.90
3488;DHT22;38546;48.170;11.724;2022-12-26T19:57:20;9.10;99.90
3488;DHT22;38546;48.170;11.724;2022-12-26T20:00:11;8.90;99.90
3488;DHT22;38546;48.170;11.724;2022-12-26T20:03:01;8.90;99.90
3488;DHT22;38546;48.170;11.724;2022-12-26T20:05:50;8.90;99.90
3488;DHT22;38546;48.170;11.724;2022-12-26T20:08:41;8.90;99.90
3488;DHT22;38546;48.170;11.724;2022-12-26T20:11:33;8.80;99.90
3488;DHT22;38546;48.170;11.724;2022-12-26T20:14:26;8.60;99.90
3488;DHT22;38546;48.170;11.724;2022-12-26T20:17:15;8.70;99.90
3488;DHT22;38546;48.170;11.724;2022-12-26T20:20:05;8.70;99.90
3488;DHT22;38546;48.170;11.724;2022-12-26T20:22:54;8.70;99.90
3488;DHT22;38546;48.170;11.724;2022-12-26T20:25:43;8.60;99.90
3488;DHT22;38546;48.170;11.724;2022-12-26T20:28:33;8.70;99.90
3488;DHT22;38546;48.170;11.724;2022-12-26T20:31:22;8.70;99.90
3488;DHT22;38546;48.170;11.724;2022-12-26T20:34:11;8.80;99.90
3488;DHT22;38546;48.170;11.724;2022-12-26T20:37:01;8.90;99.90
3488;DHT22;38546;48.170;11.724;2022-12-26T20:39:50;8.80;99.90
3488;DHT22;38546;48.170;11.724;2022-12-26T20:42:39;8.80;99.90
3488;DHT22;38546;48.170;11.724;2022-12-26T20:45:28;8.90;99.90
3488;DHT22;38546;48.170;11.724;2022-12-26T20:48:18;9.00;99.90
3488;DHT22;38546;48.170;11.724;2022-12-26T20:51:11;9.10;99.90
3488;DHT22;38546;48.170;11.724;2022-12-26T20:54:01;9.30;99.90